Time;durP1;ratioP1;P1;durP2;ratioP2;P2;SDS_P1;SDS_P2;PMS_P1;PMS_P2;Temp;Humidity;BMP_temperature;BMP_pressure;BME280_temperature;BME280_humidity;BME280_pressure;Samples;Min_cycle;Max_cycle;Signal;HPM_P1;HPM_P2
2021/06/05 00:01:29;;;;;;;8.15;6.97;;;;;;;;;;5043281;28;20426;-78
2021/06/05 00:03:55;;;;;;;10.05;7.63;;;;;;;;;;5049432;28;20036;-78
2021/06/05 00:06:23;;;;;;;8.88;7.78;;;;;;;;;;5047450;28;20037;-78
2021/06/05 00:08:49;;;;;;;10.10;7.65;;;;;;;;;;5038038;28;20087;-78
2021/06/05 00:11:18;;;;;;;11.30;8.13;;;;;;;;;;5041056;28;20030;-79
2021/06/05 00:13:49;;;;;;;13.43;8.90;;;;;;;;;;5037876;28;20494;-79
2021/06/05 00:16:19;;;;;;;9.63;7.70;;;;;;;;;;5038324;28;20171;-78
2021/06/05 00:18:47;;;;;;;11.90;7.97;;;;;;;;;;5037992;28;20036;-78
2021/06/05 00:21:13;;;;;;;11.05;8.38;;;;;;;;;;5038014;28;20041;-78
2021/06/05 00:23:38;;;;;;;19.85;9.93;;;;;;;;;;5037922;28;20032;-78
2021/06/05 00:26:05;;;;;;;16.95;10.13;;;;;;;;;;5036636;28;20443;-78
2021/06/05 00:28:30;;;;;;;16.25;9.63;;;;;;;;;;5036287;28;20087;-79
2021/06/05 00:30:57;;;;;;;18.02;10.15;;;;;;;;;;5037885;28;20021;-78
2021/06/05 00:33:23;;;;;;;11.63;10.23;;;;;;;;;;5037472;28;20442;-78
2021/06/05 00:35:50;;;;;;;12.05;9.75;;;;;;;;;;5043182;28;20037;-78
2021/06/05 00:38:16;;;;;;;19.58;9.82;;;;;;;;;;5042628;28;20038;-78
2021/06/05 00:40:44;;;;;;;43.72;9.55;;;;;;;;;;5056990;28;20116;-78
2021/06/05 00:43:11;;;;;;;11.25;9.48;;;;;;;;;;5056073;28;20049;-78
2021/06/05 00:45:40;;;;;;;50.72;9.82;;;;;;;;;;5055362;28;20056;-78
2021/06/05 00:48:07;;;;;;;46.97;10.38;;;;;;;;;;5054964;28;20425;-78
2021/06/05 00:50:40;;;;;;;49.40;10.30;;;;;;;;;;5056778;28;20102;-78
2021/06/05 00:53:08;;;;;;;28.55;9.45;;;;;;;;;;5056375;28;20064;-78
2021/06/05 00:55:39;;;;;;;11.00;9.15;;;;;;;;;;5055164;28;20087;-79
2021/06/05 00:58:06;;;;;;;12.40;9.77;;;;;;;;;;5055062;28;20029;-78
2021/06/05 01:00:42;;;;;;;10.00;9.00;;;;;;;;;;5056588;28;20036;-79
2021/06/05 01:03:08;;;;;;;13.85;8.57;;;;;;;;;;5056850;28;20155;-78
2021/06/05 01:05:35;;;;;;;12.55;8.00;;;;;;;;;;5049550;28;20053;-78
2021/06/05 01:08:23;;;;;;;10.00;7.72;;;;;;;;;;5048183;28;20474;-79
2021/06/05 01:10:54;;;;;;;10.02;8.20;;;;;;;;;;5047106;28;20037;-79
2021/06/05 01:13:37;;;;;;;9.63;7.35;;;;;;;;;;5052907;28;20093;-78
2021/06/05 01:16:07;;;;;;;7.50;6.72;;;;;;;;;;5045934;28;20042;-78
2021/06/05 01:18:57;;;;;;;9.30;8.40;;;;;;;;;;5038663;28;20124;-79
2021/06/05 01:21:58;;;;;;;13.73;7.00;;;;;;;;;;5043317;28;20483;-79
2021/06/05 01:25:00;;;;;;;8.32;7.53;;;;;;;;;;5036497;28;20061;-79
2021/06/05 01:27:33;;;;;;;9.95;8.43;;;;;;;;;;5033706;28;20040;-79
2021/06/05 01:30:06;;;;;;;8.48;7.45;;;;;;;;;;5045219;28;20057;-79
2021/06/05 01:32:33;;;;;;;8.10;7.25;;;;;;;;;;5035764;28;20040;-79
2021/06/05 01:34:59;;;;;;;32.55;7.15;;;;;;;;;;5034460;28;20044;-78
2021/06/05 01:37:28;;;;;;;7.82;7.05;;;;;;;;;;5041988;28;20090;-79
2021/06/05 01:40:10;;;;;;;18.25;7.10;;;;;;;;;;5055241;28;20106;-78
2021/06/05 01:42:40;;;;;;;22.85;7.57;;;;;;;;;;5054136;28;20057;-78
2021/06/05 01:45:13;;;;;;;7.70;6.90;;;;;;;;;;5054733;28;20033;-79
2021/06/05 01:47:40;;;;;;;8.38;7.57;;;;;;;;;;5055098;28;20047;-78
2021/06/05 01:50:10;;;;;;;14.10;7.32;;;;;;;;;;5054518;28;20045;-79
2021/06/05 01:52:39;;;;;;;8.85;7.28;;;;;;;;;;5058379;28;20406;-79
2021/06/05 01:55:16;;;;;;;11.13;8.25;;;;;;;;;;5057783;28;20155;-79
2021/06/05 01:57:48;;;;;;;19.90;7.85;;;;;;;;;;5058787;28;20094;-79
2021/06/05 02:00:30;;;;;;;10.13;7.88;;;;;;;;;;5057355;28;20025;-79
2021/06/05 02:02:59;;;;;;;9.05;7.75;;;;;;;;;;5059008;28;20376;-79
2021/06/05 02:05:31;;;;;;;8.02;7.20;;;;;;;;;;5058610;28;20033;-79
2021/06/05 02:08:02;;;;;;;8.73;6.22;;;;;;;;;;5052126;28;20041;-79
2021/06/05 02:10:31;;;;;;;7.43;6.03;;;;;;;;;;5055700;28;20124;-79
2021/06/05 02:12:58;;;;;;;11.27;6.85;;;;;;;;;;5057272;28;20025;-79
2021/06/05 02:15:39;;;;;;;9.60;7.45;;;;;;;;;;5051021;28;20025;-78
2021/06/05 02:18:13;;;;;;;7.00;6.35;;;;;;;;;;5038599;28;20044;-79
2021/06/05 02:20:50;;;;;;;8.10;6.53;;;;;;;;;;5037886;28;20458;-79
2021/06/05 02:23:21;;;;;;;11.98;7.53;;;;;;;;;;5049150;28;20120;-78
2021/06/05 02:25:47;;;;;;;8.82;7.63;;;;;;;;;;5035989;28;20030;-78
2021/06/05 02:28:14;;;;;;;17.45;7.68;;;;;;;;;;5037494;28;20052;-78
2021/06/05 02:30:42;;;;;;;14.30;8.50;;;;;;;;;;5036323;28;20097;-78
2021/06/05 02:33:08;;;;;;;14.27;8.80;;;;;;;;;;5038614;28;20122;-79
2021/06/05 02:35:43;;;;;;;11.32;8.52;;;;;;;;;;5049039;28;20127;-79
2021/06/05 02:38:18;;;;;;;9.43;7.63;;;;;;;;;;5038888;28;20029;-79
2021/06/05 02:40:45;;;;;;;12.90;8.18;;;;;;;;;;5044086;28;20463;-78
2021/06/05 02:43:26;;;;;;;9.40;7.78;;;;;;;;;;5035324;28;20076;-78
2021/06/05 02:46:04;;;;;;;11.95;8.32;;;;;;;;;;5035502;28;20026;-79
2021/06/05 02:48:44;;;;;;;18.67;7.95;;;;;;;;;;5037430;28;20395;-78
2021/06/05 02:51:11;;;;;;;12.32;8.52;;;;;;;;;;5046718;28;20025;-79
2021/06/05 02:53:38;;;;;;;12.05;8.82;;;;;;;;;;5060537;28;20040;-78
2021/06/05 02:56:04;;;;;;;18.92;8.02;;;;;;;;;;5060651;28;20459;-78
2021/06/05 02:58:33;;;;;;;11.80;7.85;;;;;;;;;;5061073;28;20082;-78
2021/06/05 03:00:59;;;;;;;10.55;8.18;;;;;;;;;;5059046;28;20034;-79
2021/06/05 03:03:24;;;;;;;12.60;8.45;;;;;;;;;;5053541;28;20459;-78
2021/06/05 03:05:52;;;;;;;17.27;8.25;;;;;;;;;;5057189;28;20029;-79
2021/06/05 03:08:23;;;;;;;14.18;7.55;;;;;;;;;;5059265;28;20381;-78
2021/06/05 03:10:49;;;;;;;13.60;8.85;;;;;;;;;;5046990;28;20079;-78
2021/06/05 03:13:16;;;;;;;10.68;8.07;;;;;;;;;;5040668;28;20033;-79
2021/06/05 03:15:44;;;;;;;12.13;8.48;;;;;;;;;;5040140;28;20037;-78
2021/06/05 03:18:13;;;;;;;11.80;7.97;;;;;;;;;;5042938;28;20112;-78
2021/06/05 03:20:45;;;;;;;11.13;8.88;;;;;;;;;;5048810;28;20034;-78
2021/06/05 03:23:12;;;;;;;11.82;9.63;;;;;;;;;;5039437;28;20037;-78
2021/06/05 03:25:38;;;;;;;13.20;8.88;;;;;;;;;;5038239;28;20399;-78
2021/06/05 03:28:07;;;;;;;11.63;9.60;;;;;;;;;;5039794;28;20129;-78
2021/06/05 03:30:34;;;;;;;14.48;9.63;;;;;;;;;;5045496;28;20399;-78
2021/06/05 03:33:01;;;;;;;13.20;10.40;;;;;;;;;;5056439;28;20037;-79
2021/06/05 03:35:30;;;;;;;14.02;9.95;;;;;;;;;;5059154;28;20506;-79
2021/06/05 03:37:56;;;;;;;12.25;10.02;;;;;;;;;;5057494;28;20071;-79
2021/06/05 03:40:28;;;;;;;22.02;9.70;;;;;;;;;;5030100;28;20025;-78
2021/06/05 03:42:54;;;;;;;14.38;10.20;;;;;;;;;;5041804;28;20037;-76
2021/06/05 03:45:21;;;;;;;50.50;11.43;;;;;;;;;;5045924;28;20407;-79
2021/06/05 03:47:47;;;;;;;13.50;10.70;;;;;;;;;;5051369;28;20103;-79
2021/06/05 03:50:20;;;;;;;18.17;10.88;;;;;;;;;;5046542;28;20037;-78
2021/06/05 03:52:46;;;;;;;33.33;12.20;;;;;;;;;;5040362;28;20068;-78
2021/06/05 03:55:13;;;;;;;20.38;10.82;;;;;;;;;;5057575;28;20887;-78
2021/06/05 03:57:39;;;;;;;12.98;11.13;;;;;;;;;;5057259;28;20037;-78
2021/06/05 04:00:11;;;;;;;17.25;11.15;;;;;;;;;;5056546;28;20052;-78
2021/06/05 04:02:39;;;;;;;14.32;9.55;;;;;;;;;;5054965;28;20086;-78
2021/06/05 04:05:05;;;;;;;13.95;10.68;;;;;;;;;;5055803;28;20120;-78
2021/06/05 04:07:30;;;;;;;11.73;10.20;;;;;;;;;;5056788;28;20118;-79
2021/06/05 04:09:55;;;;;;;14.27;10.43;;;;;;;;;;5051202;28;20064;-78
2021/06/05 04:12:21;;;;;;;13.65;10.82;;;;;;;;;;5046140;28;20032;-78
2021/06/05 04:14:47;;;;;;;12.13;10.18;;;;;;;;;;5056877;28;20029;-78
2021/06/05 04:17:12;;;;;;;11.27;10.13;;;;;;;;;;5043177;28;20561;-78
2021/06/05 04:19:39;;;;;;;12.88;10.25;;;;;;;;;;5039541;28;20041;-78
2021/06/05 04:22:06;;;;;;;12.35;10.15;;;;;;;;;;5036897;28;20097;-78
2021/06/05 04:24:33;;;;;;;11.40;10.02;;;;;;;;;;5036592;28;20033;-78
2021/06/05 04:26:59;;;;;;;10.18;9.13;;;;;;;;;;5036219;28;20075;-78
2021/06/05 04:29:25;;;;;;;12.15;10.18;;;;;;;;;;5036689;28;20422;-78
2021/06/05 04:31:50;;;;;;;10.40;9.32;;;;;;;;;;5035325;28;20064;-78
2021/06/05 04:34:16;;;;;;;10.98;9.57;;;;;;;;;;5036898;28;20037;-78
2021/06/05 04:36:41;;;;;;;10.95;9.77;;;;;;;;;;5036373;28;20244;-78
2021/06/05 04:39:07;;;;;;;13.23;9.30;;;;;;;;;;5044621;28;20462;-78
2021/06/05 04:41:33;;;;;;;12.65;9.85;;;;;;;;;;5046966;28;60315;-78
2021/06/05 04:43:58;;;;;;;12.13;9.38;;;;;;;;;;5029010;28;20065;-78
2021/06/05 04:46:24;;;;;;;11.48;9.93;;;;;;;;;;5039984;28;20862;-78
2021/06/05 04:48:50;;;;;;;10.32;9.20;;;;;;;;;;5048891;28;20033;-78
2021/06/05 04:51:18;;;;;;;10.35;8.95;;;;;;;;;;5059898;28;20025;-79
2021/06/05 04:53:43;;;;;;;10.95;9.57;;;;;;;;;;5060248;28;20037;-79
2021/06/05 04:56:10;;;;;;;11.07;9.80;;;;;;;;;;5060649;28;20044;-79
2021/06/05 04:58:35;;;;;;;10.85;9.07;;;;;;;;;;5060066;28;20044;-78
2021/06/05 05:01:01;;;;;;;10.85;9.10;;;;;;;;;;5059951;28;20041;-79
2021/06/05 05:03:30;;;;;;;9.43;8.48;;;;;;;;;;5057034;28;20084;-78
2021/06/05 05:06:00;;;;;;;13.00;7.68;;;;;;;;;;5057136;28;20521;-78
2021/06/05 05:08:26;;;;;;;12.52;7.95;;;;;;;;;;5056489;28;20413;-78
2021/06/05 05:10:53;;;;;;;9.65;7.80;;;;;;;;;;5055514;28;20375;-78
2021/06/05 05:13:25;;;;;;;13.60;8.43;;;;;;;;;;5042659;28;20079;-78
2021/06/05 05:15:52;;;;;;;15.07;9.05;;;;;;;;;;5056476;28;20086;-78
2021/06/05 05:18:19;;;;;;;8.10;7.30;;;;;;;;;;5056903;28;20033;-78
2021/06/05 05:20:48;;;;;;;9.07;8.10;;;;;;;;;;5056896;28;20036;-78
2021/06/05 05:23:14;;;;;;;8.70;7.10;;;;;;;;;;5043753;28;20041;-78
2021/06/05 05:25:42;;;;;;;6.88;6.18;;;;;;;;;;5047756;28;20087;-78
2021/06/05 05:28:08;;;;;;;7.00;6.32;;;;;;;;;;5046854;28;20034;-78
2021/06/05 05:30:38;;;;;;;6.35;5.70;;;;;;;;;;5039943;28;20029;-78
2021/06/05 05:33:04;;;;;;;9.57;7.90;;;;;;;;;;5039500;28;20037;-81
2021/06/05 05:35:31;;;;;;;8.27;7.53;;;;;;;;;;5040585;28;20033;-81
2021/06/05 05:37:56;;;;;;;10.77;7.95;;;;;;;;;;5039293;28;20045;-83
2021/06/05 05:40:24;;;;;;;6.88;6.22;;;;;;;;;;5052381;28;20079;-83
2021/06/05 05:42:49;;;;;;;8.20;7.15;;;;;;;;;;5066574;28;20152;-82
2021/06/05 05:45:15;;;;;;;8.02;7.22;;;;;;;;;;5038402;28;20068;-82
2021/06/05 05:47:41;;;;;;;9.93;8.23;;;;;;;;;;5039493;28;20037;-81
2021/06/05 05:50:10;;;;;;;10.10;7.90;;;;;;;;;;5040096;28;20104;-84
2021/06/05 05:52:35;;;;;;;11.57;8.02;;;;;;;;;;5038679;28;20391;-82
2021/06/05 05:55:02;;;;;;;9.45;8.38;;;;;;;;;;5038392;28;20037;-82
2021/06/05 05:57:27;;;;;;;10.75;8.57;;;;;;;;;;5039386;28;20471;-82
2021/06/05 05:59:52;;;;;;;7.47;6.70;;;;;;;;;;5039193;28;20113;-80
2021/06/05 06:02:18;;;;;;;15.10;7.30;;;;;;;;;;5036419;28;20036;-79
2021/06/05 06:04:44;;;;;;;8.88;6.60;;;;;;;;;;5037696;28;20073;-77
2021/06/05 06:07:09;;;;;;;7.00;6.28;;;;;;;;;;5040406;28;20059;-81
2021/06/05 06:09:35;;;;;;;7.32;6.53;;;;;;;;;;5041998;28;20041;-84
2021/06/05 06:12:00;;;;;;;10.45;8.40;;;;;;;;;;5059716;28;20029;-83
2021/06/05 06:14:26;;;;;;;10.40;9.00;;;;;;;;;;5058544;28;20043;-85
2021/06/05 06:16:51;;;;;;;10.20;8.73;;;;;;;;;;5044113;28;20044;-83
2021/06/05 06:19:17;;;;;;;14.57;12.55;;;;;;;;;;5059778;28;20478;-82
2021/06/05 06:21:43;;;;;;;13.13;10.13;;;;;;;;;;5044552;28;20037;-81
2021/06/05 06:24:11;;;;;;;11.23;9.38;;;;;;;;;;5067600;28;20036;-84
2021/06/05 06:26:38;;;;;;;10.10;8.75;;;;;;;;;;5069418;28;20029;-84
2021/06/05 06:29:29;;;;;;;11.32;8.10;;;;;;;;;;5060575;28;20090;-78
2021/06/05 06:31:53;;;;;;;15.50;9.30;;;;;;;;;;5053648;28;20047;-77
2021/06/05 06:34:18;;;;;;;14.82;9.18;;;;;;;;;;5053579;28;20120;-77
2021/06/05 06:36:44;;;;;;;8.70;7.60;;;;;;;;;;5053548;28;20037;-77
2021/06/05 06:39:12;;;;;;;8.70;7.70;;;;;;;;;;5053186;28;20033;-77
2021/06/05 06:41:38;;;;;;;11.27;7.78;;;;;;;;;;5052362;28;20084;-77
2021/06/05 06:44:05;;;;;;;9.73;7.30;;;;;;;;;;5053554;28;20060;-77
2021/06/05 06:46:35;;;;;;;9.93;7.80;;;;;;;;;;5053551;28;20071;-77
2021/06/05 06:49:02;;;;;;;10.32;7.30;;;;;;;;;;5053764;28;20040;-77
2021/06/05 06:51:29;;;;;;;13.45;6.53;;;;;;;;;;5053540;28;20467;-77
2021/06/05 06:53:54;;;;;;;7.65;6.28;;;;;;;;;;5053724;28;20052;-77
2021/06/05 06:56:20;;;;;;;7.43;5.93;;;;;;;;;;5053588;28;20032;-77
2021/06/05 06:58:49;;;;;;;7.57;5.65;;;;;;;;;;5052328;28;20040;-77
2021/06/05 07:01:16;;;;;;;7.85;6.10;;;;;;;;;;5053760;28;20033;-77
2021/06/05 07:03:42;;;;;;;8.82;6.65;;;;;;;;;;5054795;28;20036;-78
2021/06/05 07:06:07;;;;;;;6.97;5.45;;;;;;;;;;5055954;28;20033;-76
2021/06/05 07:08:36;;;;;;;7.03;5.82;;;;;;;;;;5057162;28;20102;-81
2021/06/05 07:11:13;;;;;;;6.80;6.00;;;;;;;;;;5038428;28;20049;-81
2021/06/05 07:13:39;;;;;;;8.55;6.00;;;;;;;;;;5035436;28;20467;-80
2021/06/05 07:16:05;;;;;;;8.73;5.00;;;;;;;;;;5037434;28;20075;-79
2021/06/05 07:18:31;;;;;;;5.05;4.38;;;;;;;;;;5035272;28;20037;-77
2021/06/05 07:20:59;;;;;;;4.72;4.15;;;;;;;;;;5035716;28;20036;-86
2021/06/05 07:23:27;;;;;;;7.40;5.45;;;;;;;;;;5051795;28;20043;-82
2021/06/05 07:25:54;;;;;;;8.57;4.35;;;;;;;;;;5060914;28;20052;-87
2021/06/05 07:28:36;;;;;;;8.27;4.30;;;;;;;;;;5065259;28;20112;-83
2021/06/05 07:31:04;;;;;;;6.35;4.55;;;;;;;;;;5065306;28;20040;-77
2021/06/05 07:33:29;;;;;;;10.13;4.53;;;;;;;;;;5066622;28;20091;-80
2021/06/05 07:35:56;;;;;;;7.18;5.00;;;;;;;;;;5064194;28;20414;-76
2021/06/05 07:38:23;;;;;;;8.90;4.80;;;;;;;;;;5063879;28;20491;-85
2021/06/05 07:40:50;;;;;;;7.10;4.90;;;;;;;;;;5064746;28;20028;-81
2021/06/05 07:43:17;;;;;;;6.82;5.90;;;;;;;;;;5060711;28;20457;-77
2021/06/05 07:45:43;;;;;;;6.55;5.10;;;;;;;;;;5058298;28;20124;-81
2021/06/05 07:48:09;;;;;;;9.13;6.88;;;;;;;;;;5053703;28;20073;-76
2021/06/05 07:50:34;;;;;;;8.98;8.05;;;;;;;;;;5054812;28;20386;-74
2021/06/05 07:53:00;;;;;;;11.45;6.70;;;;;;;;;;5037683;28;20028;-75
2021/06/05 07:55:27;;;;;;;13.57;7.40;;;;;;;;;;5055023;28;20182;-75
2021/06/05 07:57:52;;;;;;;18.20;8.38;;;;;;;;;;5055772;28;20039;-75
2021/06/05 08:00:22;;;;;;;49.03;10.15;;;;;;;;;;5057229;28;20118;-75
2021/06/05 08:02:47;;;;;;;20.17;8.40;;;;;;;;;;5056117;28;20120;-76
2021/06/05 08:05:13;;;;;;;48.15;10.38;;;;;;;;;;5055124;28;20127;-75
2021/06/05 08:07:39;;;;;;;14.95;8.50;;;;;;;;;;5058572;28;20057;-75
2021/06/05 08:10:09;;;;;;;15.07;7.78;;;;;;;;;;5055151;28;20495;-74
2021/06/05 08:12:35;;;;;;;10.68;8.77;;;;;;;;;;5044525;28;20037;-74
2021/06/05 08:15:00;;;;;;;18.02;8.07;;;;;;;;;;5038054;28;20414;-80
2021/06/05 08:17:26;;;;;;;23.00;8.95;;;;;;;;;;5036743;28;20033;-77
2021/06/05 08:19:52;;;;;;;16.70;7.72;;;;;;;;;;5036527;28;20030;-74
2021/06/05 08:22:23;;;;;;;20.23;7.80;;;;;;;;;;5040136;28;20113;-75
2021/06/05 08:24:50;;;;;;;12.40;8.25;;;;;;;;;;5047943;28;20395;-77
2021/06/05 08:27:17;;;;;;;18.08;8.30;;;;;;;;;;5050427;28;20571;-75
2021/06/05 08:29:42;;;;;;;13.73;7.88;;;;;;;;;;5045137;28;20032;-75
2021/06/05 08:32:08;;;;;;;26.80;7.18;;;;;;;;;;5044426;28;20028;-77
2021/06/05 08:34:34;;;;;;;10.05;7.03;;;;;;;;;;5034996;28;20066;-77
2021/06/05 08:37:06;;;;;;;15.65;7.25;;;;;;;;;;5060559;28;20029;-77
2021/06/05 08:39:32;;;;;;;18.67;6.63;;;;;;;;;;5054380;28;20450;-75
2021/06/05 08:42:01;;;;;;;12.43;7.38;;;;;;;;;;5055359;28;20044;-73
2021/06/05 08:44:34;;;;;;;13.73;6.82;;;;;;;;;;5056292;28;20103;-74
2021/06/05 08:47:08;;;;;;;13.70;10.57;;;;;;;;;;5054988;28;20639;-76
2021/06/05 08:49:39;;;;;;;26.27;21.53;;;;;;;;;;5055288;28;20036;-74
2021/06/05 08:52:17;;;;;;;49.33;37.88;;;;;;;;;;5055506;28;20037;-74
2021/06/05 08:54:52;;;;;;;44.92;29.02;;;;;;;;;;5054187;28;20033;-74
2021/06/05 08:57:40;;;;;;;12.35;8.43;;;;;;;;;;5054463;28;20029;-74
2021/06/05 09:00:24;;;;;;;13.18;6.35;;;;;;;;;;5055551;28;20123;-74
2021/06/05 09:02:54;;;;;;;7.60;5.63;;;;;;;;;;5055412;28;20049;-77
2021/06/05 09:05:25;;;;;;;6.88;5.72;;;;;;;;;;5054443;28;20789;-74
2021/06/05 09:07:50;;;;;;;6.40;5.45;;;;;;;;;;5055914;28;20064;-73
2021/06/05 09:10:19;;;;;;;12.40;5.45;;;;;;;;;;5069469;28;20037;-74
2021/06/05 09:12:44;;;;;;;34.80;6.65;;;;;;;;;;5075275;28;20116;-74
2021/06/05 09:15:27;;;;;;;13.30;5.45;;;;;;;;;;5064828;28;20072;-74
2021/06/05 09:17:55;;;;;;;22.27;9.13;;;;;;;;;;5056185;28;20036;-74
2021/06/05 09:20:26;;;;;;;21.45;5.65;;;;;;;;;;5057646;28;20032;-74
2021/06/05 09:22:53;;;;;;;18.83;4.70;;;;;;;;;;5058425;28;20106;-74
2021/06/05 09:25:27;;;;;;;37.33;5.10;;;;;;;;;;5062539;28;20040;-76
2021/06/05 09:27:53;;;;;;;7.97;3.88;;;;;;;;;;5066104;28;20084;-77
2021/06/05 09:30:37;;;;;;;11.80;5.13;;;;;;;;;;5061609;28;20048;-74
2021/06/05 09:33:08;;;;;;;20.95;5.53;;;;;;;;;;5060560;28;20037;-74
2021/06/05 09:35:44;;;;;;;14.38;6.18;;;;;;;;;;5059999;28;20033;-74
2021/06/05 09:38:30;;;;;;;63.15;9.18;;;;;;;;;;5059074;28;20041;-74
2021/06/05 09:40:58;;;;;;;16.92;5.75;;;;;;;;;;5059760;28;20043;-73
2021/06/05 09:43:26;;;;;;;460.77;52.25;;;;;;;;;;5053383;28;20049;-75
2021/06/05 09:46:24;;;;;;;250.93;17.90;;;;;;;;;;5053748;28;20033;-74
2021/06/05 09:48:53;;;;;;;16.00;6.38;;;;;;;;;;5052299;28;20121;-75
2021/06/05 09:51:39;;;;;;;300.40;66.65;;;;;;;;;;5051862;28;20370;-74
2021/06/05 09:54:12;;;;;;;705.15;52.72;;;;;;;;;;5053257;28;20029;-75
2021/06/05 09:56:44;;;;;;;75.93;9.30;;;;;;;;;;5053242;28;20037;-75
2021/06/05 09:59:17;;;;;;;125.18;11.45;;;;;;;;;;5052742;28;20037;-75
2021/06/05 10:02:12;;;;;;;242.52;26.75;;;;;;;;;;5053018;28;20033;-74
2021/06/05 10:04:40;;;;;;;21.77;8.15;;;;;;;;;;5053235;28;20049;-74
2021/06/05 10:07:23;;;;;;;11.27;6.57;;;;;;;;;;5052684;28;20040;-76
2021/06/05 10:09:48;;;;;;;50.83;8.73;;;;;;;;;;5052005;28;20494;-75
2021/06/05 10:12:23;;;;;;;221.82;14.65;;;;;;;;;;5051949;28;20061;-74
2021/06/05 10:14:55;;;;;;;107.03;11.45;;;;;;;;;;5053116;28;20112;-74
2021/06/05 10:17:50;;;;;;;459.90;35.75;;;;;;;;;;5052906;28;20033;-75
2021/06/05 10:20:34;;;;;;;83.38;11.88;;;;;;;;;;5053044;28;20044;-75
2021/06/05 10:22:59;;;;;;;444.38;40.78;;;;;;;;;;5063112;28;20037;-75
2021/06/05 10:25:42;;;;;;;178.00;19.90;;;;;;;;;;5073099;28;20097;-75
2021/06/05 10:28:19;;;;;;;243.20;18.42;;;;;;;;;;5072853;28;20493;-75
2021/06/05 10:30:47;;;;;;;394.23;31.52;;;;;;;;;;5072354;28;20063;-74
2021/06/05 10:33:34;;;;;;;545.13;42.33;;;;;;;;;;5072927;28;20037;-76
2021/06/05 10:36:02;;;;;;;458.77;36.33;;;;;;;;;;5072980;28;20029;-75
2021/06/05 10:38:49;;;;;;;207.15;20.20;;;;;;;;;;5074249;28;20040;-78
2021/06/05 10:41:19;;;;;;;315.10;29.55;;;;;;;;;;5046964;28;20042;-76
2021/06/05 10:43:45;;;;;;;815.10;690.40;;;;;;;;;;5032712;28;20041;-74
2021/06/05 10:46:22;;;;;;;342.77;122.05;;;;;;;;;;5033219;28;20040;-75
2021/06/05 10:48:50;;;;;;;344.95;36.67;;;;;;;;;;5037607;28;20055;-76
2021/06/05 10:51:23;;;;;;;300.08;32.67;;;;;;;;;;5051812;28;20400;-74
2021/06/05 10:54:04;;;;;;;100.85;26.05;;;;;;;;;;5052877;28;20167;-74
2021/06/05 10:56:38;;;;;;;149.20;47.10;;;;;;;;;;5052618;28;20032;-75
2021/06/05 10:59:09;;;;;;;50.30;13.93;;;;;;;;;;5053055;28;20386;-74
2021/06/05 11:01:40;;;;;;;39.25;14.75;;;;;;;;;;5052722;28;20287;-74
2021/06/05 11:04:32;;;;;;;15.60;10.88;;;;;;;;;;5052627;28;20040;-74
2021/06/05 11:07:03;;;;;;;19.38;10.73;;;;;;;;;;5050323;28;20048;-75
2021/06/05 11:09:30;;;;;;;356.67;34.97;;;;;;;;;;5050549;28;20060;-76
2021/06/05 11:12:14;;;;;;;28.85;11.02;;;;;;;;;;5036368;28;20108;-75
2021/06/05 11:14:44;;;;;;;18.75;10.27;;;;;;;;;;5035183;28;20044;-75
2021/06/05 11:17:26;;;;;;;47.03;30.15;;;;;;;;;;5036731;28;20125;-75
2021/06/05 11:20:33;;;;;;;66.80;39.03;;;;;;;;;;5038479;28;20048;-74
2021/06/05 11:22:59;;;;;;;97.43;41.55;;;;;;;;;;5042505;28;20048;-75
2021/06/05 11:25:44;;;;;;;640.47;515.60;;;;;;;;;;5042352;28;20043;-74
2021/06/05 11:28:21;;;;;;;223.02;171.90;;;;;;;;;;5043322;28;20033;-74
2021/06/05 11:30:46;;;;;;;77.57;47.25;;;;;;;;;;5042919;28;20466;-76
2021/06/05 11:33:43;;;;;;;47.80;21.17;;;;;;;;;;5052547;28;20065;-74
2021/06/05 11:36:37;;;;;;;45.13;26.98;;;;;;;;;;5061624;28;20036;-76
2021/06/05 11:39:08;;;;;;;119.07;72.80;;;;;;;;;;5059367;28;20086;-73
2021/06/05 11:42:00;;;;;;;34.25;12.13;;;;;;;;;;5057430;28;20065;-74
2021/06/05 11:44:33;;;;;;;22.58;5.30;;;;;;;;;;5057722;28;20123;-74
2021/06/05 11:47:21;;;;;;;152.38;32.65;;;;;;;;;;5057361;28;20039;-73
2021/06/05 11:50:19;;;;;;;453.80;294.85;;;;;;;;;;5057981;28;20036;-74
2021/06/05 11:52:51;;;;;;;1671.85;910.03;;;;;;;;;;5057499;28;20082;-74
2021/06/05 11:55:29;;;;;;;1143.10;808.15;;;;;;;;;;5058644;28;20037;-73
2021/06/05 11:58:01;;;;;;;1999.90;999.90;;;;;;;;;;5058062;28;20057;-73
2021/06/05 12:00:44;;;;;;;1999.90;958.17;;;;;;;;;;5059127;28;20115;-73
2021/06/05 12:03:22;;;;;;;1999.90;999.90;;;;;;;;;;5058595;28;20383;-75
2021/06/05 12:05:48;;;;;;;1406.40;934.90;;;;;;;;;;5058363;28;20033;-74
2021/06/05 12:08:23;;;;;;;344.50;307.60;;;;;;;;;;5058339;28;20064;-73
2021/06/05 12:10:50;;;;;;;34.78;29.58;;;;;;;;;;5054790;28;20040;-74
2021/06/05 12:13:22;;;;;;;14.40;6.90;;;;;;;;;;5054738;28;20033;-73
2021/06/05 12:15:49;;;;;;;120.15;19.75;;;;;;;;;;5054298;28;20381;-74
2021/06/05 12:18:28;;;;;;;83.55;30.20;;;;;;;;;;5055177;28;20063;-73
2021/06/05 12:20:59;;;;;;;1475.13;937.58;;;;;;;;;;5055450;28;20086;-74
2021/06/05 12:23:28;;;;;;;1999.90;999.90;;;;;;;;;;5055081;28;20048;-73
2021/06/05 12:26:02;;;;;;;1999.90;999.90;;;;;;;;;;5055898;28;20044;-74
2021/06/05 12:28:30;;;;;;;210.13;188.25;;;;;;;;;;5055753;28;20394;-73
2021/06/05 12:31:13;;;;;;;16.23;12.88;;;;;;;;;;5054687;28;20082;-73
2021/06/05 12:33:39;;;;;;;4.25;2.30;;;;;;;;;;5055533;28;20033;-73
2021/06/05 12:36:19;;;;;;;7.65;2.25;;;;;;;;;;5056189;28;20451;-73
2021/06/05 12:38:47;;;;;;;6.68;4.65;;;;;;;;;;5056244;28;20459;-74
2021/06/05 12:41:21;;;;;;;4.63;2.97;;;;;;;;;;5060487;28;20382;-73
2021/06/05 12:43:47;;;;;;;3.88;2.60;;;;;;;;;;5074350;28;20045;-73
2021/06/05 12:46:19;;;;;;;2.78;2.20;;;;;;;;;;5076094;28;20107;-73
2021/06/05 12:48:45;;;;;;;4.00;2.15;;;;;;;;;;5076093;28;20060;-74
2021/06/05 12:51:20;;;;;;;4.22;2.47;;;;;;;;;;5063876;28;20060;-74
2021/06/05 12:53:56;;;;;;;8.00;2.13;;;;;;;;;;5056915;28;20033;-73
2021/06/05 12:56:41;;;;;;;3.55;2.20;;;;;;;;;;5056844;28;20037;-74
2021/06/05 12:59:12;;;;;;;3.28;2.13;;;;;;;;;;5055544;28;20037;-75
2021/06/05 13:01:46;;;;;;;6.00;1.95;;;;;;;;;;5054569;28;20040;-75
2021/06/05 13:04:31;;;;;;;66.47;3.90;;;;;;;;;;5055178;28;20170;-76
2021/06/05 13:07:04;;;;;;;7.20;2.17;;;;;;;;;;5053119;28;20402;-77
2021/06/05 13:09:45;;;;;;;5.43;1.98;;;;;;;;;;5051955;28;20059;-76
2021/06/05 13:12:19;;;;;;;7.70;3.50;;;;;;;;;;5054217;28;20086;-75
2021/06/05 13:14:45;;;;;;;;;;;;;;;;;;5054093;28;20040;-75
2021/06/05 13:17:15;;;;;;;13.50;3.00;;;;;;;;;;5056113;28;20038;-75
2021/06/05 13:19:43;;;;;;;4.60;3.30;;;;;;;;;;5072229;28;20067;-75
2021/06/05 13:22:28;;;;;;;3.13;2.75;;;;;;;;;;5070572;28;20082;-75
2021/06/05 13:25:12;;;;;;;3.20;2.67;;;;;;;;;;5073076;28;20052;-75
2021/06/05 13:27:41;;;;;;;4.03;2.63;;;;;;;;;;5074983;28;20385;-76
2021/06/05 13:30:24;;;;;;;4.55;3.13;;;;;;;;;;5074919;28;20550;-75
2021/06/05 13:32:54;;;;;;;5.03;3.60;;;;;;;;;;5073661;28;20029;-74
2021/06/05 13:35:35;;;;;;;12.73;4.10;;;;;;;;;;5074206;28;20140;-75
2021/06/05 13:38:04;;;;;;;8.57;5.00;;;;;;;;;;5053072;28;20029;-77
2021/06/05 13:40:30;;;;;;;22.15;16.23;;;;;;;;;;5035401;28;20041;-75
2021/06/05 13:42:57;;;;;;;8.60;6.20;;;;;;;;;;5037228;28;20038;-76
2021/06/05 13:45:27;;;;;;;9.23;6.78;;;;;;;;;;5040387;28;20112;-76
2021/06/05 13:47:54;;;;;;;9.30;6.55;;;;;;;;;;5041846;28;20040;-78
2021/06/05 13:50:24;;;;;;;8.98;6.30;;;;;;;;;;5039821;28;20038;-77
2021/06/05 13:52:51;;;;;;;10.38;7.50;;;;;;;;;;5038732;28;20072;-76
2021/06/05 13:55:27;;;;;;;12.20;7.70;;;;;;;;;;5042351;28;20034;-77
2021/06/05 13:57:53;;;;;;;9.63;7.47;;;;;;;;;;5041974;28;20041;-77
2021/06/05 14:00:20;;;;;;;10.23;6.80;;;;;;;;;;5050895;28;20117;-77
2021/06/05 14:02:45;;;;;;;11.63;7.45;;;;;;;;;;5061769;28;20041;-78
2021/06/05 14:05:12;;;;;;;9.75;7.82;;;;;;;;;;5059132;28;20068;-76
2021/06/05 14:07:38;;;;;;;13.73;9.05;;;;;;;;;;5042437;28;20036;-76
2021/06/05 14:10:04;;;;;;;14.50;7.55;;;;;;;;;;5061574;28;20163;-76
2021/06/05 14:12:31;;;;;;;9.60;8.40;;;;;;;;;;5060846;28;20033;-76
2021/06/05 14:14:58;;;;;;;15.13;8.88;;;;;;;;;;5062841;28;20021;-76
2021/06/05 14:17:24;;;;;;;11.73;10.02;;;;;;;;;;5061496;28;20041;-76
2021/06/05 14:19:50;;;;;;;12.80;10.60;;;;;;;;;;5063378;28;20040;-77
2021/06/05 14:22:17;;;;;;;12.00;9.90;;;;;;;;;;5046001;28;20059;-75
2021/06/05 14:24:43;;;;;;;13.57;10.30;;;;;;;;;;5057575;28;20047;-76
2021/06/05 14:27:09;;;;;;;15.07;11.20;;;;;;;;;;5052958;28;20502;-74
2021/06/05 14:29:35;;;;;;;13.20;10.98;;;;;;;;;;5052998;28;20475;-75
2021/06/05 14:32:02;;;;;;;13.60;10.60;;;;;;;;;;5053326;28;20036;-75
2021/06/05 14:34:28;;;;;;;13.55;10.70;;;;;;;;;;5058889;28;20033;-75
2021/06/05 14:36:54;;;;;;;18.02;12.60;;;;;;;;;;5052772;28;20043;-75
2021/06/05 14:39:20;;;;;;;16.10;13.10;;;;;;;;;;5058793;28;20033;-76
2021/06/05 14:41:50;;;;;;;14.80;11.65;;;;;;;;;;5059005;28;20029;-76
2021/06/05 14:44:15;;;;;;;14.70;10.70;;;;;;;;;;5059770;28;20040;-75
2021/06/05 14:46:41;;;;;;;12.73;11.10;;;;;;;;;;5062393;28;20087;-75
2021/06/05 14:49:07;;;;;;;12.82;11.00;;;;;;;;;;5061134;28;20112;-76